createdAt,value
2022-11-10T00:01:43.172Z,2.80
2022-11-10T00:06:47.266Z,2.60
2022-11-10T00:11:48.775Z,3.17
2022-11-10T00:17:02.444Z,2.70
2022-11-10T00:22:03.925Z,3.00
2022-11-10T00:27:05.736Z,3.00
2022-11-10T00:32:08.450Z,2.92
2022-11-10T00:37:09.900Z,3.25
2022-11-10T00:42:11.684Z,3.20
2022-11-10T00:47:13.349Z,3.00
2022-11-10T00:52:14.889Z,3.45
2022-11-10T00:57:16.348Z,3.72
2022-11-10T01:02:17.853Z,4.57
2022-11-10T01:07:19.358Z,3.55
2022-11-10T01:12:20.824Z,3.38
2022-11-10T01:17:22.369Z,3.10
2022-11-10T01:22:23.852Z,3.90
2022-11-10T01:27:25.301Z,3.63
2022-11-10T01:32:26.774Z,2.75
2022-11-10T01:37:28.327Z,3.25
2022-11-10T01:42:44.226Z,3.40
2022-11-10T01:47:45.789Z,3.72
2022-11-10T01:52:50.430Z,3.05
2022-11-10T01:57:51.973Z,2.70
2022-11-10T02:03:10.425Z,3.20
2022-11-10T02:08:15.768Z,3.38
2022-11-10T02:13:17.256Z,3.53
2022-11-10T02:18:18.809Z,4.10
2022-11-10T02:23:53.643Z,3.70
2022-11-10T02:28:55.155Z,3.90
2022-11-10T02:33:56.627Z,3.65
2022-11-10T02:38:58.189Z,4.28
2022-11-10T02:43:59.950Z,4.25
2022-11-10T02:49:01.449Z,4.45
2022-11-10T02:54:02.947Z,4.40
2022-11-10T02:59:04.985Z,4.65
2022-11-10T03:04:07.373Z,4.25
2022-11-10T03:09:08.855Z,4.22
2022-11-10T03:14:10.356Z,5.22
2022-11-10T03:19:11.813Z,4.28
2022-11-10T03:24:13.306Z,4.53
2022-11-10T03:29:14.785Z,4.20
2022-11-10T03:34:16.297Z,4.57
2022-11-10T03:39:17.729Z,4.57
2022-11-10T03:44:19.180Z,5.00
2022-11-10T03:49:20.631Z,4.63
2022-11-10T03:54:22.205Z,4.15
2022-11-10T03:59:23.670Z,4.43
2022-11-10T04:04:43.908Z,4.65
2022-11-10T04:09:45.359Z,3.38
2022-11-10T04:15:05.380Z,4.90
2022-11-10T04:20:07.312Z,4.82
2022-11-10T04:25:08.908Z,4.35
2022-11-10T04:30:10.688Z,4.00
2022-11-10T04:35:12.206Z,4.32
2022-11-10T04:40:13.683Z,5.68
2022-11-10T04:45:15.207Z,4.72
2022-11-10T04:50:16.733Z,4.53
2022-11-10T04:55:18.205Z,3.60
2022-11-10T05:00:20.146Z,4.50
2022-11-10T05:05:21.754Z,3.75
2022-11-10T05:10:23.664Z,4.45
2022-11-10T05:15:25.817Z,4.70
2022-11-10T05:20:27.939Z,4.28
2022-11-10T05:25:29.400Z,4.22
2022-11-10T05:30:31.150Z,5.05
2022-11-10T05:35:32.826Z,4.45
2022-11-10T05:40:34.551Z,4.85
2022-11-10T05:45:36.094Z,4.75
2022-11-10T05:50:37.555Z,5.03
2022-11-10T05:55:39.092Z,5.43
2022-11-10T06:00:40.633Z,6.05
2022-11-10T06:05:42.125Z,5.28
2022-11-10T06:10:43.623Z,4.35
2022-11-10T06:15:50.183Z,4.80
2022-11-10T06:20:52.087Z,5.05
2022-11-10T06:25:53.581Z,4.40
2022-11-10T06:30:58.279Z,4.65
2022-11-10T06:35:59.757Z,4.63
2022-11-10T06:41:01.274Z,5.05
2022-11-10T06:46:02.732Z,4.82
2022-11-10T06:51:04.347Z,6.13
2022-11-10T06:56:06.326Z,4.20
2022-11-10T07:01:07.835Z,4.50
2022-11-10T07:06:09.314Z,4.63
2022-11-10T07:11:10.844Z,4.07
2022-11-10T07:16:12.562Z,4.75
2022-11-10T07:21:14.108Z,4.72
2022-11-10T07:26:15.570Z,5.30
2022-11-10T07:31:17.054Z,4.93
2022-11-10T07:36:18.530Z,5.03
2022-11-10T07:41:20.116Z,6.50
2022-11-10T07:46:21.570Z,6.22
2022-11-10T07:51:23.152Z,4.78
2022-11-10T07:56:24.633Z,6.22
2022-11-10T08:01:26.163Z,6.03
2022-11-10T08:06:29.277Z,5.90
2022-11-10T08:11:32.614Z,5.68
2022-11-10T08:16:34.132Z,5.95
2022-11-10T08:21:35.691Z,7.15
2022-11-10T08:26:37.380Z,7.22
2022-11-10T08:31:41.365Z,7.63
2022-11-10T08:36:42.863Z,6.80
2022-11-10T08:41:44.490Z,6.38
2022-11-10T08:46:47.047Z,6.53
2022-11-10T08:51:48.605Z,6.47
2022-11-10T08:56:50.139Z,6.15
2022-11-10T09:01:51.615Z,5.20
2022-11-10T09:06:53.098Z,5.22
2022-11-10T09:11:54.677Z,5.30
2022-11-10T09:16:56.461Z,5.93
2022-11-10T09:21:57.955Z,6.28
2022-11-10T09:26:59.452Z,6.35
2022-11-10T09:32:00.943Z,6.47
2022-11-10T09:37:02.381Z,6.20
2022-11-10T09:42:27.534Z,6.10
2022-11-10T09:53:00.850Z,5.38
2022-11-10T09:58:02.657Z,5.95
2022-11-10T10:03:06.151Z,6.68
2022-11-10T10:08:11.814Z,4.82
2022-11-10T10:13:31.131Z,6.25
2022-11-10T10:18:46.911Z,4.60
2022-11-10T10:24:19.798Z,5.00
2022-11-10T10:29:23.099Z,6.15
2022-11-10T10:34:30.210Z,5.00
2022-11-10T10:39:42.487Z,4.88
2022-11-10T10:45:13.648Z,4.55
2022-11-10T10:50:25.864Z,3.78
2022-11-10T10:55:29.919Z,4.30
2022-11-10T11:00:33.182Z,5.22
2022-11-10T11:05:34.645Z,4.47
2022-11-10T11:10:43.960Z,4.25
2022-11-10T11:16:00.247Z,5.88
2022-11-10T11:21:20.257Z,3.72
2022-11-10T11:26:39.914Z,3.80
2022-11-10T11:32:01.390Z,4.90
2022-11-10T11:37:19.165Z,4.25
2022-11-10T11:42:47.015Z,4.25
2022-11-10T11:48:07.957Z,4.33
2022-11-10T11:53:40.227Z,4.22
2022-11-10T11:58:45.841Z,4.00
2022-11-10T12:04:25.131Z,4.45
2022-11-10T12:09:31.711Z,4.57
2022-11-10T12:14:40.881Z,4.97
2022-11-10T12:20:03.270Z,3.95
2022-11-10T12:25:16.208Z,4.10
2022-11-10T12:30:18.508Z,4.22
2022-11-10T12:35:24.448Z,3.42
2022-11-10T12:40:31.466Z,4.38
2022-11-10T12:45:46.973Z,4.63
2022-11-10T12:51:13.046Z,4.82
2022-11-10T12:56:23.559Z,3.45
2022-11-10T13:01:25.089Z,3.95
2022-11-10T13:06:36.636Z,4.10
2022-11-10T13:11:39.892Z,4.75
2022-11-10T13:16:41.326Z,3.80
2022-11-10T13:21:51.591Z,4.13
2022-11-10T13:26:55.342Z,4.20
2022-11-10T13:31:58.707Z,3.90
2022-11-10T13:37:01.257Z,3.90
2022-11-10T13:42:18.621Z,4.45
2022-11-10T13:47:35.163Z,4.50
2022-11-10T13:52:39.311Z,3.25
2022-11-10T13:57:57.326Z,3.72
2022-11-10T14:03:03.215Z,3.72
2022-11-10T14:08:25.800Z,4.03
2022-11-10T14:13:42.767Z,3.53
2022-11-10T14:19:06.165Z,4.43
2022-11-10T14:24:16.629Z,2.92
2022-11-10T14:29:25.180Z,3.60
2022-11-10T14:34:27.095Z,4.57
2022-11-10T14:39:35.380Z,3.20
2022-11-10T14:44:36.863Z,4.60
2022-11-10T14:49:38.426Z,3.58
2022-11-10T14:54:45.553Z,3.33
2022-11-10T14:59:47.412Z,3.45
2022-11-10T15:04:51.529Z,3.10
2022-11-10T15:10:13.551Z,3.92
2022-11-10T15:15:22.340Z,3.30
2022-11-10T15:20:40.986Z,4.60
2022-11-10T15:25:42.602Z,3.95
2022-11-10T15:30:56.808Z,6.15
2022-11-10T15:36:27.789Z,3.97
2022-11-10T15:41:32.288Z,3.28
2022-11-10T15:46:33.808Z,3.63
2022-11-10T15:51:35.271Z,3.15
2022-11-10T15:56:36.756Z,3.15
2022-11-10T16:01:38.610Z,4.38
2022-11-10T16:06:41.565Z,3.75
2022-11-10T16:11:44.729Z,4.28
2022-11-10T16:16:46.303Z,3.97
2022-11-10T16:21:47.792Z,4.05
2022-11-10T16:26:49.266Z,3.50
2022-11-10T16:31:50.773Z,3.28
2022-11-10T16:36:52.288Z,2.83
2022-11-10T16:41:53.731Z,3.22
2022-11-10T16:46:57.266Z,4.10
2022-11-10T16:51:58.822Z,3.35
2022-11-10T16:57:00.346Z,3.22
2022-11-10T17:02:02.929Z,2.78
2022-11-10T17:07:13.056Z,3.00
2022-11-10T17:12:14.947Z,2.85
2022-11-10T17:17:19.437Z,3.00
2022-11-10T17:22:22.813Z,2.75
2022-11-10T17:27:26.259Z,4.22
2022-11-10T17:32:50.051Z,3.50
2022-11-10T17:37:52.085Z,3.92
2022-11-10T17:42:53.618Z,3.58
2022-11-10T17:47:55.165Z,6.15
2022-11-10T17:52:56.833Z,4.22
2022-11-10T17:57:58.362Z,4.57
2022-11-10T18:03:00.638Z,5.00
2022-11-10T18:08:02.161Z,3.17
2022-11-10T18:13:03.641Z,4.45
2022-11-10T18:18:05.140Z,3.45
2022-11-10T18:23:08.304Z,4.00
2022-11-10T18:28:13.691Z,5.65
2022-11-10T18:33:15.213Z,3.13
2022-11-10T18:38:16.718Z,4.03
2022-11-10T18:43:18.220Z,3.30
2022-11-10T18:48:22.242Z,3.33
2022-11-10T18:53:27.126Z,3.25
2022-11-10T18:58:28.705Z,3.35
2022-11-10T19:03:30.181Z,5.20
2022-11-10T19:08:31.660Z,4.45
2022-11-10T19:13:33.358Z,3.55
2022-11-10T19:18:35.555Z,3.08
2022-11-10T19:23:37.425Z,4.05
2022-11-10T19:28:39.452Z,4.20
2022-11-10T19:33:43.846Z,4.22
2022-11-10T19:38:45.810Z,4.10
2022-11-10T19:43:47.849Z,4.68
2022-11-10T19:48:49.610Z,3.33
2022-11-10T19:54:02.953Z,4.15
2022-11-10T19:59:04.498Z,3.30
2022-11-10T20:04:08.501Z,3.67
2022-11-10T20:09:10.064Z,3.10
2022-11-10T20:14:11.507Z,3.72
2022-11-10T20:19:13.009Z,4.22
2022-11-10T20:24:14.785Z,3.50
2022-11-10T20:29:16.250Z,3.47
2022-11-10T20:34:17.717Z,3.67
2022-11-10T20:39:19.209Z,3.53
2022-11-10T20:44:20.746Z,3.88
2022-11-10T20:49:22.192Z,3.13
2022-11-10T20:54:23.643Z,3.65
2022-11-10T20:59:25.158Z,3.40
2022-11-10T21:04:26.647Z,3.78
2022-11-10T21:09:29.392Z,3.40
2022-11-10T21:14:30.863Z,3.45
2022-11-10T21:19:34.059Z,4.03
2022-11-10T21:24:35.598Z,3.92
2022-11-10T21:29:37.072Z,3.60
2022-11-10T21:34:38.517Z,3.55
2022-11-10T21:39:40.720Z,3.30
2022-11-10T21:44:42.200Z,3.78
2022-11-10T21:49:43.680Z,3.85
2022-11-10T21:54:45.167Z,4.10
2022-11-10T21:59:46.677Z,4.10
2022-11-10T22:04:48.189Z,3.90
2022-11-10T22:10:13.942Z,4.38
2022-11-10T22:15:34.313Z,4.85
2022-11-10T22:20:35.818Z,4.22
2022-11-10T22:25:38.078Z,4.40
2022-11-10T22:30:39.539Z,4.53
2022-11-10T22:35:43.533Z,5.30
2022-11-10T22:41:03.562Z,4.68
2022-11-10T22:46:05.175Z,5.20
2022-11-10T22:51:06.679Z,4.80
2022-11-10T22:56:08.266Z,5.22
2022-11-10T23:01:11.565Z,5.32
2022-11-10T23:06:13.122Z,5.07
2022-11-10T23:11:17.439Z,5.03
2022-11-10T23:16:21.378Z,5.40
2022-11-10T23:21:26.749Z,5.75
2022-11-10T23:26:30.166Z,5.80
2022-11-10T23:31:31.687Z,5.82
2022-11-10T23:36:33.159Z,6.03
2022-11-10T23:41:34.612Z,6.43
2022-11-10T23:46:36.171Z,6.20
2022-11-10T23:51:37.638Z,5.88
2022-11-10T23:56:39.093Z,6.30
